หน้าหลัก
METAR-TAF:

METAR-TAF

ท่าอากาศยาน :

เอลแพโซ, เทกซัส, สหรัฐอเมริกา

ละติจูด: 31-48-40N, ลองจิจูด: 106-22-33W, ความสูง: 1206 ม.

การสังเกตสภาพอากาศปัจจุบัน

รายงานได้ทำขึ้นเมื่อ 24 นาทีที่แล้ว ณ เวลา 14:51 UTC
ลมสงบ
อุณหภูมิ 28°C
ความชื้น 45%
ความกดอากาศ 1019 hPa
ทัศนวิสัย: 16.1 กม.
ท้องฟ้าแจ่มใส

METAR: KELP 121451Z 00000KT 10SM CLR 28/15 A3010 RMK AO2 SLP108 T02830150 51013

เวลา: 10:15 (15:15 UTC)

การพยากรณ์

รายงานได้ทำขึ้นเมื่อ 3 ชั่วโมงและ 38 นาทีที่แล้ว ณ เวลา 11:37 UTC
การพยากรณ์มีผลตั้งแต่วันที่ 12 ณ เวลา 12 UTC จนถึงวันที่ 13 ณ เวลา 12 UTC
ลม 5 นอตจากตะวันออก/ตะวันออกเฉียงใต้
ทัศนวิสัย: 10 กม.
ท้องฟ้าแจ่มใส

TAF: KELP 121137Z 1212/1312 12005KT P6SM SKC

สังเกตการณ์สภาพอากาศและพยากรณ์อากาศของสนามบินมากกว่า 4000 แห่ง (รายงาน METAR และ TAF).

สถานีที่ดูได้จะแสดงไว้ด้วยจุดสีเหลืองและสีแดงบนแผนที่.

เลื่อนเมาส์ไปเหนือจุดเพื่อดูชื่อสถานี.

แล้วคลิกเพื่อดูสังเกตการณ์และการพยากรณ์สภาพอากาศ.

ในการเปลี่ยนแผนที่: คลิกที่ปุ่มสีเขียวที่มีกากบาทสีดำเพื่อซูมเข้า; ที่ปุ่มสีเขียวที่มีขีดเพื่อซูมออก; หรือที่ลูกศรสีเขียวเพื่อไปยังแผนที่ที่อยู่ติดกัน.


METAR-TAF: